Terminal Aerodrome Forecast
Issued by NWS Hastings, NE

Home | Current Version | Previous Version | Text Only | Print | Product List | Glossary On
Versions: 1 2 3 4 5 6 7 8 9 10 11 12 13 14 15 16 17
000
FTUS45 KGID 011124
TAFEAR
TAF
KEAR 011124Z 0112/0212 19010KT P6SM SCT110 OVC200 WS007/22040KT
     FM011400 19010KT P6SM SCT110 SCT200
     FM011900 18013G23KT P6SM SCT120
     FM020200 17010KT P6SM SCT120 WS007/21040KT
      AMD LTD TO CLD VIS AND WIND=

USA.gov is the U.S. government's official web portal to all federal, state and local government web resources and services.